sensor_id;sensor_type;location;lat;lon;timestamp;pressure;altitude;pressure_sealevel;temperature;humidity
6938;BME280;40040;42.706;23.372;2023-02-17T00:02:18;144110.59;;;-0.34;100.00
6938;BME280;40040;42.706;23.372;2023-02-17T00:04:45;144113.06;;;-0.33;100.00
6938;BME280;40040;42.706;23.372;2023-02-17T00:07:12;144117.91;;;-0.31;100.00
6938;BME280;40040;42.706;23.372;2023-02-17T00:09:39;144088.59;;;-0.43;100.00
6938;BME280;40040;42.706;23.372;2023-02-17T00:12:06;144077.59;;;-0.48;100.00
6938;BME280;40040;42.706;23.372;2023-02-17T00:14:34;144031.16;;;-0.67;100.00
6938;BME280;40040;42.706;23.372;2023-02-17T00:17:01;144089.81;;;-0.43;100.00
6938;BME280;40040;42.706;23.372;2023-02-17T00:19:28;144021.38;;;-0.71;100.00
6938;BME280;40040;42.706;23.372;2023-02-17T00:21:56;144091.06;;;-0.42;100.00
6938;BME280;40040;42.706;23.372;2023-02-17T00:24:24;144039.72;;;-0.63;100.00
6938;BME280;40040;42.706;23.372;2023-02-17T00:26:51;144025.03;;;-0.69;100.00
6938;BME280;40040;42.706;23.372;2023-02-17T00:29:18;144087.41;;;-0.44;100.00
6938;BME280;40040;42.706;23.372;2023-02-17T00:31:47;144056.81;;;-0.56;100.00
6938;BME280;40040;42.706;23.372;2023-02-17T00:34:16;144099.63;;;-0.39;100.00
6938;BME280;40040;42.706;23.372;2023-02-17T00:36:43;144106.94;;;-0.36;100.00
6938;BME280;40040;42.706;23.372;2023-02-17T00:39:11;144106.94;;;-0.36;100.00
6938;BME280;40040;42.706;23.372;2023-02-17T00:41:39;144099.63;;;-0.39;100.00
6938;BME280;40040;42.706;23.372;2023-02-17T00:44:06;144092.25;;;-0.42;100.00
6938;BME280;40040;42.706;23.372;2023-02-17T00:46:33;144082.50;;;-0.46;100.00
6938;BME280;40040;42.706;23.372;2023-02-17T00:49:01;144067.81;;;-0.52;100.00
6938;BME280;40040;42.706;23.372;2023-02-17T00:51:28;144028.69;;;-0.68;100.00
6938;BME280;40040;42.706;23.372;2023-02-17T00:53:55;144062.91;;;-0.54;100.00
6938;BME280;40040;42.706;23.372;2023-02-17T00:56:21;144053.16;;;-0.58;100.00
6938;BME280;40040;42.706;23.372;2023-02-17T00:58:48;144055.59;;;-0.57;100.00
6938;BME280;40040;42.706;23.372;2023-02-17T01:01:15;144023.84;;;-0.70;100.00
6938;BME280;40040;42.706;23.372;2023-02-17T01:03:42;144026.25;;;-0.69;100.00
6938;BME280;40040;42.706;23.372;2023-02-17T01:08:56;143967.63;;;-0.93;100.00
6938;BME280;40040;42.706;23.372;2023-02-17T01:11:26;144020.13;;;-0.71;100.00
6938;BME280;40040;42.706;23.372;2023-02-17T01:13:55;144038.47;;;-0.64;100.00
6938;BME280;40040;42.706;23.372;2023-02-17T01:16:24;144031.16;;;-0.67;100.00
6938;BME280;40040;42.706;23.372;2023-02-17T01:18:52;144037.25;;;-0.64;100.00
6938;BME280;40040;42.706;23.372;2023-02-17T01:21:21;143976.16;;;-0.89;100.00
6938;BME280;40040;42.706;23.372;2023-02-17T01:23:49;144004.25;;;-0.78;100.00
6938;BME280;40040;42.706;23.372;2023-02-17T01:26:19;144000.59;;;-0.79;100.00
6938;BME280;40040;42.706;23.372;2023-02-17T01:28:46;143996.94;;;-0.81;100.00
6938;BME280;40040;42.706;23.372;2023-02-17T01:31:16;143977.34;;;-0.89;100.00
6938;BME280;40040;42.706;23.372;2023-02-17T01:33:42;143979.84;;;-0.88;100.00
6938;BME280;40040;42.706;23.372;2023-02-17T01:36:12;143968.84;;;-0.92;100.00
6938;BME280;40040;42.706;23.372;2023-02-17T01:38:41;143938.28;;;-1.05;100.00
6938;BME280;40040;42.706;23.372;2023-02-17T01:41:08;143957.84;;;-0.97;100.00
6938;BME280;40040;42.706;23.372;2023-02-17T01:43:35;143954.16;;;-0.98;100.00
6938;BME280;40040;42.706;23.372;2023-02-17T01:46:03;143935.81;;;-1.06;100.00
6938;BME280;40040;42.706;23.372;2023-02-17T01:48:32;143911.41;;;-1.16;100.00
6938;BME280;40040;42.706;23.372;2023-02-17T01:51:03;143884.50;;;-1.27;100.00
6938;BME280;40040;42.706;23.372;2023-02-17T01:53:34;143913.81;;;-1.15;100.00
6938;BME280;40040;42.706;23.372;2023-02-17T01:56:05;143921.19;;;-1.12;100.00
6938;BME280;40040;42.706;23.372;2023-02-17T01:58:33;143882.09;;;-1.28;100.00
6938;BME280;40040;42.706;23.372;2023-02-17T02:01:02;143885.75;;;-1.27;100.00
6938;BME280;40040;42.706;23.372;2023-02-17T02:03:31;143911.41;;;-1.16;100.00
6938;BME280;40040;42.706;23.372;2023-02-17T02:06:02;143896.78;;;-1.22;100.00
6938;BME280;40040;42.706;23.372;2023-02-17T02:08:36;143875.97;;;-1.31;100.00
6938;BME280;40040;42.706;23.372;2023-02-17T02:11:06;143905.28;;;-1.19;100.00
6938;BME280;40040;42.706;23.372;2023-02-17T02:13:33;143916.31;;;-1.14;100.00
6938;BME280;40040;42.706;23.372;2023-02-17T02:16:05;143916.31;;;-1.14;100.00
6938;BME280;40040;42.706;23.372;2023-02-17T02:18:52;143906.50;;;-1.18;100.00
6938;BME280;40040;42.706;23.372;2023-02-17T02:21:41;143906.50;;;-1.18;100.00
6938;BME280;40040;42.706;23.372;2023-02-17T02:24:36;143921.19;;;-1.12;100.00
6938;BME280;40040;42.706;23.372;2023-02-17T02:27:44;143941.97;;;-1.03;100.00
6938;BME280;40040;42.706;23.372;2023-02-17T02:30:32;143938.28;;;-1.05;100.00
6938;BME280;40040;42.706;23.372;2023-02-17T02:33:14;143922.38;;;-1.12;100.00
6938;BME280;40040;42.706;23.372;2023-02-17T02:35:49;143962.72;;;-0.95;100.00
6938;BME280;40040;42.706;23.372;2023-02-17T02:38:23;143952.94;;;-0.99;100.00
6938;BME280;40040;42.706;23.372;2023-02-17T02:40:55;143927.28;;;-1.09;100.00
6938;BME280;40040;42.706;23.372;2023-02-17T02:43:23;143879.66;;;-1.29;100.00
6938;BME280;40040;42.706;23.372;2023-02-17T02:45:50;143999.38;;;-0.80;100.00
6938;BME280;40040;42.706;23.372;2023-02-17T02:48:19;143999.38;;;-0.80;100.00
6938;BME280;40040;42.706;23.372;2023-02-17T02:51:17;143994.47;;;-0.82;100.00
6938;BME280;40040;42.706;23.372;2023-02-17T02:53:55;144009.16;;;-0.76;100.00
6938;BME280;40040;42.706;23.372;2023-02-17T02:56:32;143981.06;;;-0.87;100.00
6938;BME280;40040;42.706;23.372;2023-02-17T02:59:07;143973.69;;;-0.90;100.00
6938;BME280;40040;42.706;23.372;2023-02-17T03:01:44;143941.97;;;-1.03;100.00
6938;BME280;40040;42.706;23.372;2023-02-17T03:04:21;143935.81;;;-1.06;100.00
6938;BME280;40040;42.706;23.372;2023-02-17T03:06:59;143933.41;;;-1.07;100.00
6938;BME280;40040;42.706;23.372;2023-02-17T03:09:27;143957.84;;;-0.97;100.00
6938;BME280;40040;42.706;23.372;2023-02-17T03:11:55;143945.63;;;-1.02;100.00
6938;BME280;40040;42.706;23.372;2023-02-17T03:14:23;143957.84;;;-0.97;100.00
6938;BME280;40040;42.706;23.372;2023-02-17T03:16:51;143894.31;;;-1.23;100.00
6938;BME280;40040;42.706;23.372;2023-02-17T03:19:21;143950.50;;;-1.00;100.00
6938;BME280;40040;42.706;23.372;2023-02-17T03:21:51;143955.41;;;-0.98;100.00
6938;BME280;40040;42.706;23.372;2023-02-17T03:24:18;143943.19;;;-1.03;100.00
6938;BME280;40040;42.706;23.372;2023-02-17T03:26:45;143918.72;;;-1.13;100.00
6938;BME280;40040;42.706;23.372;2023-02-17T03:29:12;143867.41;;;-1.34;100.00
6938;BME280;40040;42.706;23.372;2023-02-17T03:31:39;143878.44;;;-1.30;100.00
6938;BME280;40040;42.706;23.372;2023-02-17T03:34:06;143854.03;;;-1.40;100.00
6938;BME280;40040;42.706;23.372;2023-02-17T03:36:35;143752.63;;;-1.81;100.00
6938;BME280;40040;42.706;23.372;2023-02-17T03:39:02;143830.78;;;-1.49;100.00
6938;BME280;40040;42.706;23.372;2023-02-17T03:41:29;143867.41;;;-1.34;100.00
6938;BME280;40040;42.706;23.372;2023-02-17T03:43:56;143875.97;;;-1.31;100.00
6938;BME280;40040;42.706;23.372;2023-02-17T03:46:23;143875.97;;;-1.31;100.00
6938;BME280;40040;42.706;23.372;2023-02-17T03:48:50;143857.69;;;-1.38;100.00
6938;BME280;40040;42.706;23.372;2023-02-17T03:51:18;143843.00;;;-1.44;100.00
6938;BME280;40040;42.706;23.372;2023-02-17T03:53:47;143791.69;;;-1.65;100.00
6938;BME280;40040;42.706;23.372;2023-02-17T03:56:15;143823.47;;;-1.52;100.00
6938;BME280;40040;42.706;23.372;2023-02-17T03:58:42;143806.38;;;-1.59;100.00
6938;BME280;40040;42.706;23.372;2023-02-17T04:01:10;143843.00;;;-1.44;100.00
6938;BME280;40040;42.706;23.372;2023-02-17T04:03:38;143835.69;;;-1.47;100.00
6938;BME280;40040;42.706;23.372;2023-02-17T04:06:06;143852.78;;;-1.40;100.00
6938;BME280;40040;42.706;23.372;2023-02-17T04:08:33;143840.56;;;-1.45;100.00
6938;BME280;40040;42.706;23.372;2023-02-17T04:11:03;143860.09;;;-1.37;100.00
6938;BME280;40040;42.706;23.372;2023-02-17T04:13:31;143810.03;;;-1.58;100.00
6938;BME280;40040;42.706;23.372;2023-02-17T04:15:58;143847.91;;;-1.42;100.00
6938;BME280;40040;42.706;23.372;2023-02-17T04:18:26;143849.13;;;-1.42;100.00
6938;BME280;40040;42.706;23.372;2023-02-17T04:20:53;143861.34;;;-1.37;100.00
6938;BME280;40040;42.706;23.372;2023-02-17T04:23:20;143858.88;;;-1.38;100.00
6938;BME280;40040;42.706;23.372;2023-02-17T04:25:47;143850.31;;;-1.41;100.00
6938;BME280;40040;42.706;23.372;2023-02-17T04:28:16;143852.78;;;-1.40;100.00
6938;BME280;40040;42.706;23.372;2023-02-17T04:30:44;143865.00;;;-1.35;100.00
6938;BME280;40040;42.706;23.372;2023-02-17T04:33:12;143845.47;;;-1.43;100.00
6938;BME280;40040;42.706;23.372;2023-02-17T04:35:39;143862.56;;;-1.36;100.00
6938;BME280;40040;42.706;23.372;2023-02-17T04:38:06;143862.56;;;-1.36;100.00
6938;BME280;40040;42.706;23.372;2023-02-17T04:40:33;143841.75;;;-1.45;100.00
6938;BME280;40040;42.706;23.372;2023-02-17T04:43:00;143852.78;;;-1.40;100.00
6938;BME280;40040;42.706;23.372;2023-02-17T04:45:28;143863.75;;;-1.36;100.00
6938;BME280;40040;42.706;23.372;2023-02-17T04:47:55;143852.78;;;-1.40;100.00
6938;BME280;40040;42.706;23.372;2023-02-17T04:50:22;143847.91;;;-1.42;100.00
6938;BME280;40040;42.706;23.372;2023-02-17T04:52:48;143816.16;;;-1.55;100.00
6938;BME280;40040;42.706;23.372;2023-02-17T04:55:15;143872.31;;;-1.32;100.00
6938;BME280;40040;42.706;23.372;2023-02-17T04:57:42;143865.00;;;-1.35;100.00
6938;BME280;40040;42.706;23.372;2023-02-17T05:00:10;143852.78;;;-1.40;100.00
6938;BME280;40040;42.706;23.372;2023-02-17T05:02:39;143860.09;;;-1.37;100.00
6938;BME280;40040;42.706;23.372;2023-02-17T05:05:06;143828.38;;;-1.50;100.00
6938;BME280;40040;42.706;23.372;2023-02-17T05:07:33;143835.69;;;-1.47;100.00
6938;BME280;40040;42.706;23.372;2023-02-17T05:10:00;143843.00;;;-1.44;100.00
6938;BME280;40040;42.706;23.372;2023-02-17T05:12:27;143845.47;;;-1.43;100.00
6938;BME280;40040;42.706;23.372;2023-02-17T05:14:53;143828.38;;;-1.50;100.00
6938;BME280;40040;42.706;23.372;2023-02-17T05:17:20;143817.34;;;-1.55;100.00
6938;BME280;40040;42.706;23.372;2023-02-17T05:19:48;143744.13;;;-1.85;100.00
6938;BME280;40040;42.706;23.372;2023-02-17T05:22:15;143857.69;;;-1.38;100.00
6938;BME280;40040;42.706;23.372;2023-02-17T05:24:42;143814.94;;;-1.56;100.00
6938;BME280;40040;42.706;23.372;2023-02-17T05:27:09;143843.00;;;-1.44;100.00
6938;BME280;40040;42.706;23.372;2023-02-17T05:29:36;143850.31;;;-1.41;100.00
6938;BME280;40040;42.706;23.372;2023-02-17T05:32:03;143869.88;;;-1.33;100.00
6938;BME280;40040;42.706;23.372;2023-02-17T05:34:29;143841.75;;;-1.45;100.00
6938;BME280;40040;42.706;23.372;2023-02-17T05:36:58;143781.97;;;-1.69;100.00
6938;BME280;40040;42.706;23.372;2023-02-17T05:39:25;143891.88;;;-1.24;100.00
6938;BME280;40040;42.706;23.372;2023-02-17T05:41:52;143913.81;;;-1.15;100.00
6938;BME280;40040;42.706;23.372;2023-02-17T05:44:19;143835.69;;;-1.47;100.00
6938;BME280;40040;42.706;23.372;2023-02-17T05:46:45;143939.50;;;-1.04;100.00
6938;BME280;40040;42.706;23.372;2023-02-17T05:49:12;143943.19;;;-1.03;100.00
6938;BME280;40040;42.706;23.372;2023-02-17T05:51:39;143956.59;;;-0.97;100.00
6938;BME280;40040;42.706;23.372;2023-02-17T05:54:07;143874.78;;;-1.31;100.00
6938;BME280;40040;42.706;23.372;2023-02-17T05:56:34;143957.84;;;-0.97;100.00
6938;BME280;40040;42.706;23.372;2023-02-17T05:59:02;143895.53;;;-1.23;100.00
6938;BME280;40040;42.706;23.372;2023-02-17T06:01:29;143990.81;;;-0.83;100.00
6938;BME280;40040;42.706;23.372;2023-02-17T06:03:55;143999.38;;;-0.80;100.00
6938;BME280;40040;42.706;23.372;2023-02-17T06:06:22;144014.06;;;-0.74;100.00
6938;BME280;40040;42.706;23.372;2023-02-17T06:08:49;144031.16;;;-0.67;100.00
6938;BME280;40040;42.706;23.372;2023-02-17T06:11:18;144001.84;;;-0.79;100.00
6938;BME280;40040;42.706;23.372;2023-02-17T06:13:44;144067.81;;;-0.52;100.00
6938;BME280;40040;42.706;23.372;2023-02-17T06:16:11;144072.72;;;-0.50;100.00
6938;BME280;40040;42.706;23.372;2023-02-17T06:18:38;144055.59;;;-0.57;100.00
6938;BME280;40040;42.706;23.372;2023-02-17T06:21:05;144114.25;;;-0.33;100.00
6938;BME280;40040;42.706;23.372;2023-02-17T06:23:32;144113.06;;;-0.33;100.00
6938;BME280;40040;42.706;23.372;2023-02-17T06:25:59;144132.63;;;-0.25;100.00
6938;BME280;40040;42.706;23.372;2023-02-17T06:28:28;144086.16;;;-0.44;100.00
6938;BME280;40040;42.706;23.372;2023-02-17T06:30:55;144048.28;;;-0.60;100.00
6938;BME280;40040;42.706;23.372;2023-02-17T06:33:21;144198.63;;;0.02;100.00
6938;BME280;40040;42.706;23.372;2023-02-17T06:35:49;144216.97;;;0.10;100.00
6938;BME280;40040;42.706;23.372;2023-02-17T06:38:16;144192.53;;;-0.01;100.00
6938;BME280;40040;42.706;23.372;2023-02-17T06:40:43;144241.44;;;0.20;100.00
6938;BME280;40040;42.706;23.372;2023-02-17T06:43:10;144292.81;;;0.41;100.00
6938;BME280;40040;42.706;23.372;2023-02-17T06:45:38;144349.09;;;0.64;100.00
6938;BME280;40040;42.706;23.372;2023-02-17T06:48:05;144385.78;;;0.79;100.00
6938;BME280;40040;42.706;23.372;2023-02-17T06:50:32;144406.59;;;0.87;100.00
6938;BME280;40040;42.706;23.372;2023-02-17T06:52:59;144388.25;;;0.80;100.00
6938;BME280;40040;42.706;23.372;2023-02-17T06:55:26;144456.81;;;1.08;100.00
6938;BME280;40040;42.706;23.372;2023-02-17T06:57:53;144362.56;;;0.69;100.00
6938;BME280;40040;42.706;23.372;2023-02-17T07:00:20;144532.69;;;1.39;100.00
6938;BME280;40040;42.706;23.372;2023-02-17T07:02:49;144581.66;;;1.59;100.00
6938;BME280;40040;42.706;23.372;2023-02-17T07:05:16;144582.91;;;1.60;100.00
6938;BME280;40040;42.706;23.372;2023-02-17T07:07:43;144635.56;;;1.81;100.00
6938;BME280;40040;42.706;23.372;2023-02-17T07:10:10;144662.50;;;1.92;100.00
6938;BME280;40040;42.706;23.372;2023-02-17T07:12:38;144674.72;;;1.97;100.00
6938;BME280;40040;42.706;23.372;2023-02-17T07:15:05;144649.00;;;1.87;100.00
6938;BME280;40040;42.706;23.372;2023-02-17T07:17:32;144656.38;;;1.90;100.00
6938;BME280;40040;42.706;23.372;2023-02-17T07:20:01;144711.50;;;2.12;100.00
6938;BME280;40040;42.706;23.372;2023-02-17T07:22:28;144732.34;;;2.21;100.00
6938;BME280;40040;42.706;23.372;2023-02-17T07:24:55;144699.28;;;2.07;100.00
6938;BME280;40040;42.706;23.372;2023-02-17T07:27:22;144748.25;;;2.27;100.00
6938;BME280;40040;42.706;23.372;2023-02-17T07:29:48;144810.75;;;2.53;100.00
6938;BME280;40040;42.706;23.372;2023-02-17T07:32:15;144848.72;;;2.69;100.00
6938;BME280;40040;42.706;23.372;2023-02-17T07:34:42;144872.03;;;2.78;100.00
6938;BME280;40040;42.706;23.372;2023-02-17T07:37:11;144902.69;;;2.91;100.00
6938;BME280;40040;42.706;23.372;2023-02-17T07:39:38;144906.38;;;2.92;100.00
6938;BME280;40040;42.706;23.372;2023-02-17T07:42:05;144961.53;;;3.15;100.00
6938;BME280;40040;42.706;23.372;2023-02-17T07:44:32;145031.41;;;3.43;100.00
6938;BME280;40040;42.706;23.372;2023-02-17T07:46:59;145071.94;;;3.60;100.00
6938;BME280;40040;42.706;23.372;2023-02-17T07:49:26;145108.72;;;3.75;100.00
6938;BME280;40040;42.706;23.372;2023-02-17T07:51:53;145111.19;;;3.76;100.00
6938;BME280;40040;42.706;23.372;2023-02-17T07:54:21;145170.09;;;4.00;100.00
6938;BME280;40040;42.706;23.372;2023-02-17T07:56:48;145233.91;;;4.26;100.00
6938;BME280;40040;42.706;23.372;2023-02-17T07:59:15;145290.38;;;4.49;97.02
6938;BME280;40040;42.706;23.372;2023-02-17T08:01:42;145305.06;;;4.55;97.25
6938;BME280;40040;42.706;23.372;2023-02-17T08:04:08;145279.31;;;4.45;97.02
6938;BME280;40040;42.706;23.372;2023-02-17T08:06:36;145392.28;;;4.91;94.31
6938;BME280;40040;42.706;23.372;2023-02-17T08:09:04;145362.81;;;4.79;90.03
6938;BME280;40040;42.706;23.372;2023-02-17T08:11:50;145477.03;;;5.26;88.64
6938;BME280;40040;42.706;23.372;2023-02-17T08:14:34;145521.28;;;5.44;87.12
6938;BME280;40040;42.706;23.372;2023-02-17T08:17:02;145542.16;;;5.52;85.57
6938;BME280;40040;42.706;23.372;2023-02-17T08:19:29;145555.63;;;5.58;83.13
6938;BME280;40040;42.706;23.372;2023-02-17T08:21:56;145572.84;;;5.65;82.63
6938;BME280;40040;42.706;23.372;2023-02-17T08:24:23;145617.13;;;5.83;81.37
6938;BME280;40040;42.706;23.372;2023-02-17T08:26:53;145717.91;;;6.24;83.09
6938;BME280;40040;42.706;23.372;2023-02-17T08:29:20;145754.84;;;6.39;81.75
6938;BME280;40040;42.706;23.372;2023-02-17T08:31:51;145810.16;;;6.62;79.79
6938;BME280;40040;42.706;23.372;2023-02-17T08:34:18;145786.78;;;6.52;78.97
6938;BME280;40040;42.706;23.372;2023-02-17T08:36:45;145911.00;;;7.03;76.59
6938;BME280;40040;42.706;23.372;2023-02-17T08:39:14;145936.84;;;7.14;77.52
6938;BME280;40040;42.706;23.372;2023-02-17T08:41:42;145973.75;;;7.29;76.63
6938;BME280;40040;42.706;23.372;2023-02-17T08:44:12;146043.91;;;7.57;74.00
6938;BME280;40040;42.706;23.372;2023-02-17T08:46:40;146082.06;;;7.73;74.28
6938;BME280;40040;42.706;23.372;2023-02-17T08:49:08;146142.38;;;7.97;72.12
6938;BME280;40040;42.706;23.372;2023-02-17T08:51:35;146173.19;;;8.10;72.65
6938;BME280;40040;42.706;23.372;2023-02-17T08:54:04;146247.13;;;8.40;70.02
6938;BME280;40040;42.706;23.372;2023-02-17T08:56:32;146264.31;;;8.47;70.37
6938;BME280;40040;42.706;23.372;2023-02-17T08:58:59;146374.00;;;8.92;69.53
6938;BME280;40040;42.706;23.372;2023-02-17T09:01:28;146449.16;;;9.23;67.08
6938;BME280;40040;42.706;23.372;2023-02-17T09:03:57;146456.56;;;9.26;66.78
6938;BME280;40040;42.706;23.372;2023-02-17T09:06:31;146566.25;;;9.70;65.84
6938;BME280;40040;42.706;23.372;2023-02-17T09:08:59;146616.81;;;9.91;64.46
6938;BME280;40040;42.706;23.372;2023-02-17T09:11:26;146663.72;;;10.10;63.84
6938;BME280;40040;42.706;23.372;2023-02-17T09:13:53;146717.97;;;10.32;62.40
6938;BME280;40040;42.706;23.372;2023-02-17T09:16:20;146672.34;;;10.13;62.07
6938;BME280;40040;42.706;23.372;2023-02-17T09:18:50;146912.94;;;11.11;61.17
6938;BME280;40040;42.706;23.372;2023-02-17T09:21:17;146969.75;;;11.34;59.51
6938;BME280;40040;42.706;23.372;2023-02-17T09:23:45;147021.59;;;11.56;58.89
6938;BME280;40040;42.706;23.372;2023-02-17T09:26:14;147085.84;;;11.82;58.90
6938;BME280;40040;42.706;23.372;2023-02-17T09:28:42;147110.53;;;11.92;56.65
6938;BME280;40040;42.706;23.372;2023-02-17T09:31:10;147145.13;;;12.06;55.66
6938;BME280;40040;42.706;23.372;2023-02-17T09:33:37;147268.66;;;12.56;55.72
6938;BME280;40040;42.706;23.372;2023-02-17T09:36:08;147379.88;;;13.01;55.54
6938;BME280;40040;42.706;23.372;2023-02-17T09:38:37;147421.94;;;13.18;53.06
6938;BME280;40040;42.706;23.372;2023-02-17T09:41:14;147281.00;;;12.61;50.16
6938;BME280;40040;42.706;23.372;2023-02-17T09:43:42;147451.63;;;13.30;50.01
6938;BME280;40040;42.706;23.372;2023-02-17T09:46:12;147580.22;;;13.83;49.74
6938;BME280;40040;42.706;23.372;2023-02-17T09:48:42;147684.16;;;14.25;43.94
6938;BME280;40040;42.706;23.372;2023-02-17T09:51:16;147807.94;;;14.75;42.22
6938;BME280;40040;42.706;23.372;2023-02-17T09:53:52;147928.00;;;15.24;41.31
6938;BME280;40040;42.706;23.372;2023-02-17T09:56:27;148022.22;;;15.62;41.08
6938;BME280;40040;42.706;23.372;2023-02-17T09:58:58;148137.41;;;16.09;38.71
6938;BME280;40040;42.706;23.372;2023-02-17T10:01:30;148132.44;;;16.07;37.96
6938;BME280;40040;42.706;23.372;2023-02-17T10:04:02;148164.63;;;16.20;38.44
6938;BME280;40040;42.706;23.372;2023-02-17T10:06:35;148234.06;;;16.48;36.77
6938;BME280;40040;42.706;23.372;2023-02-17T10:09:07;148217.91;;;16.41;35.73
6938;BME280;40040;42.706;23.372;2023-02-17T10:11:41;148203.03;;;16.35;35.92
6938;BME280;40040;42.706;23.372;2023-02-17T10:14:14;148286.13;;;16.69;36.58
6938;BME280;40040;42.706;23.372;2023-02-17T10:16:46;148315.88;;;16.81;35.67
6938;BME280;40040;42.706;23.372;2023-02-17T10:19:19;148393.97;;;17.13;35.10
6938;BME280;40040;42.706;23.372;2023-02-17T10:21:56;148422.53;;;17.24;34.33
6938;BME280;40040;42.706;23.372;2023-02-17T10:24:23;148451.03;;;17.36;34.46
6938;BME280;40040;42.706;23.372;2023-02-17T10:26:59;148504.38;;;17.57;34.23
6938;BME280;40040;42.706;23.372;2023-02-17T10:29:35;148550.31;;;17.76;33.64
6938;BME280;40040;42.706;23.372;2023-02-17T10:32:14;148496.94;;;17.54;33.63
6938;BME280;40040;42.706;23.372;2023-02-17T10:34:56;148442.34;;;17.32;35.01
6938;BME280;40040;42.706;23.372;2023-02-17T10:37:37;148491.97;;;17.52;34.32
6938;BME280;40040;42.706;23.372;2023-02-17T10:40:11;148439.84;;;17.31;34.18
6938;BME280;40040;42.706;23.372;2023-02-17T10:42:40;148478.38;;;17.47;32.09
6938;BME280;40040;42.706;23.372;2023-02-17T10:45:14;148401.41;;;17.16;31.03
6938;BME280;40040;42.706;23.372;2023-02-17T10:47:43;148556.47;;;17.78;32.19
6938;BME280;40040;42.706;23.372;2023-02-17T10:50:17;148602.41;;;17.97;32.19
6938;BME280;40040;42.706;23.372;2023-02-17T10:52:47;148555.28;;;17.78;29.69
6938;BME280;40040;42.706;23.372;2023-02-17T10:55:20;148660.69;;;18.21;29.57
6938;BME280;40040;42.706;23.372;2023-02-17T10:57:53;148640.84;;;18.13;29.04
6938;BME280;40040;42.706;23.372;2023-02-17T11:00:23;148676.81;;;18.27;30.00
6938;BME280;40040;42.706;23.372;2023-02-17T11:02:51;148634.63;;;18.10;30.50
6938;BME280;40040;42.706;23.372;2023-02-17T11:05:24;148650.75;;;18.17;30.27
6938;BME280;40040;42.706;23.372;2023-02-17T11:07:59;148664.41;;;18.22;30.40
6938;BME280;40040;42.706;23.372;2023-02-17T11:10:29;148699.16;;;18.36;29.77
6938;BME280;40040;42.706;23.372;2023-02-17T11:12:57;148710.41;;;18.41;29.25
6938;BME280;40040;42.706;23.372;2023-02-17T11:15:29;148680.59;;;18.29;29.30
6938;BME280;40040;42.706;23.372;2023-02-17T11:17:59;148694.19;;;18.34;29.41
6938;BME280;40040;42.706;23.372;2023-02-17T11:20:35;148838.22;;;18.92;29.52
6938;BME280;40040;42.706;23.372;2023-02-17T11:23:15;148891.63;;;19.14;29.22
6938;BME280;40040;42.706;23.372;2023-02-17T11:25:55;148839.50;;;18.93;28.95
6938;BME280;40040;42.706;23.372;2023-02-17T11:28:23;148829.53;;;18.89;29.24
6938;BME280;40040;42.706;23.372;2023-02-17T11:30:52;148832.00;;;18.90;29.62
6938;BME280;40040;42.706;23.372;2023-02-17T11:33:21;148814.63;;;18.83;29.37
6938;BME280;40040;42.706;23.372;2023-02-17T11:35:50;148769.97;;;18.65;29.28
6938;BME280;40040;42.706;23.372;2023-02-17T11:38:22;148927.63;;;19.29;29.22
6938;BME280;40040;42.706;23.372;2023-02-17T11:40:58;148834.50;;;18.91;28.88
6938;BME280;40040;42.706;23.372;2023-02-17T11:43:26;148917.72;;;19.25;29.72
6938;BME280;40040;42.706;23.372;2023-02-17T11:46:01;148783.63;;;18.70;28.91
6938;BME280;40040;42.706;23.372;2023-02-17T11:51:50;148836.97;;;18.92;29.46
6938;BME280;40040;42.706;23.372;2023-02-17T11:54:25;148861.84;;;19.02;28.69
6938;BME280;40040;42.706;23.372;2023-02-17T11:57:02;148798.50;;;18.76;28.89
6938;BME280;40040;42.706;23.372;2023-02-17T11:59:51;148871.75;;;19.06;28.75
6938;BME280;40040;42.706;23.372;2023-02-17T12:02:40;148995.97;;;19.56;28.60
6938;BME280;40040;42.706;23.372;2023-02-17T12:05:19;148936.34;;;19.32;27.88
6938;BME280;40040;42.706;23.372;2023-02-17T12:08:00;148918.91;;;19.25;28.35
6938;BME280;40040;42.706;23.372;2023-02-17T12:10:43;148851.91;;;18.98;28.24
6938;BME280;40040;42.706;23.372;2023-02-17T12:13:23;148926.41;;;19.28;28.48
6938;BME280;40040;42.706;23.372;2023-02-17T12:16:02;148952.50;;;19.39;29.64
6938;BME280;40040;42.706;23.372;2023-02-17T12:18:43;148836.97;;;18.92;28.11
6938;BME280;40040;42.706;23.372;2023-02-17T12:21:19;148922.66;;;19.27;27.96
6938;BME280;40040;42.706;23.372;2023-02-17T12:24:04;148966.16;;;19.44;28.54
6938;BME280;40040;42.706;23.372;2023-02-17T12:26:39;148971.13;;;19.46;28.77
6938;BME280;40040;42.706;23.372;2023-02-17T12:29:33;148958.72;;;19.41;27.73
6938;BME280;40040;42.706;23.372;2023-02-17T12:32:20;148918.91;;;19.25;28.09
6938;BME280;40040;42.706;23.372;2023-02-17T12:34:54;148899.06;;;19.17;28.33
6938;BME280;40040;42.706;23.372;2023-02-17T12:37:27;148918.91;;;19.25;28.86
6938;BME280;40040;42.706;23.372;2023-02-17T12:39:59;148933.91;;;19.31;28.59
6938;BME280;40040;42.706;23.372;2023-02-17T12:42:34;148911.47;;;19.22;27.58
6938;BME280;40040;42.706;23.372;2023-02-17T12:45:06;148900.34;;;19.18;28.93
6938;BME280;40040;42.706;23.372;2023-02-17T12:47:38;148901.53;;;19.18;27.84
6938;BME280;40040;42.706;23.372;2023-02-17T12:50:18;148861.84;;;19.02;28.22
6938;BME280;40040;42.706;23.372;2023-02-17T12:52:49;148797.25;;;18.76;27.94
6938;BME280;40040;42.706;23.372;2023-02-17T12:55:21;148836.97;;;18.92;28.81
6938;BME280;40040;42.706;23.372;2023-02-17T12:58:00;148938.88;;;19.33;28.50
6938;BME280;40040;42.706;23.372;2023-02-17T13:00:33;148925.16;;;19.28;28.00
6938;BME280;40040;42.706;23.372;2023-02-17T13:03:03;148874.25;;;19.07;28.39
6938;BME280;40040;42.706;23.372;2023-02-17T13:05:36;148834.50;;;18.91;28.69
6938;BME280;40040;42.706;23.372;2023-02-17T13:08:06;148829.53;;;18.89;28.83